createdAt,value
2019-03-21T00:00:20.128Z,6.00
2019-03-21T00:02:50.144Z,6.00
2019-03-21T00:05:20.315Z,6.00
2019-03-21T00:07:50.369Z,6.00
2019-03-21T00:10:58.888Z,6.00
2019-03-21T00:13:28.883Z,6.00
2019-03-21T00:16:01.255Z,6.00
2019-03-21T00:18:31.235Z,6.00
2019-03-21T00:21:01.197Z,6.00
2019-03-21T00:23:31.163Z,6.00
2019-03-21T00:26:01.124Z,6.00
2019-03-21T00:28:31.103Z,6.10
2019-03-21T00:31:01.155Z,6.10
2019-03-21T00:33:31.112Z,6.10
2019-03-21T00:36:01.048Z,6.10
2019-03-21T00:38:31.044Z,6.10
2019-03-21T00:41:01.023Z,6.10
2019-03-21T00:43:31.030Z,6.20
2019-03-21T00:46:01.067Z,6.20
2019-03-21T00:48:31.076Z,6.20
2019-03-21T00:51:01.071Z,6.20
2019-03-21T00:53:31.155Z,6.10
2019-03-21T00:56:01.169Z,6.10
2019-03-21T00:58:31.155Z,6.10
2019-03-21T01:01:01.417Z,6.10
2019-03-21T01:03:31.436Z,6.10
2019-03-21T01:06:01.446Z,6.10
2019-03-21T01:08:31.482Z,6.10
2019-03-21T01:11:01.471Z,6.10
2019-03-21T01:13:33.076Z,6.00
2019-03-21T01:16:03.058Z,6.00
2019-03-21T01:18:33.047Z,6.00
2019-03-21T01:21:03.023Z,6.00
2019-03-21T01:23:33.205Z,6.00
2019-03-21T01:26:03.272Z,6.00
2019-03-21T01:28:33.244Z,6.00
2019-03-21T01:31:03.219Z,6.00
2019-03-21T01:33:33.272Z,5.90
2019-03-21T01:36:03.211Z,6.00
2019-03-21T01:38:33.265Z,5.90
2019-03-21T01:41:03.291Z,5.90
2019-03-21T01:43:33.269Z,5.90
2019-03-21T01:46:04.171Z,5.90
2019-03-21T01:48:35.067Z,5.90
2019-03-21T01:51:05.047Z,5.90
2019-03-21T01:53:35.033Z,5.80
2019-03-21T01:56:05.043Z,5.80
2019-03-21T01:58:35.069Z,5.90
2019-03-21T02:01:05.023Z,5.80
2019-03-21T02:03:34.995Z,5.80
2019-03-21T02:06:05.006Z,5.80
2019-03-21T02:08:35.005Z,5.80
2019-03-21T02:11:05.051Z,5.80
2019-03-21T02:13:35.081Z,5.80
2019-03-21T02:16:05.051Z,5.80
2019-03-21T02:18:35.083Z,5.80
2019-03-21T02:21:05.106Z,5.80
2019-03-21T02:23:35.091Z,5.80
2019-03-21T02:26:05.063Z,5.80
2019-03-21T02:28:35.279Z,5.80
2019-03-21T02:31:05.358Z,5.80
2019-03-21T02:33:35.351Z,5.80
2019-03-21T02:36:05.381Z,5.80
2019-03-21T02:38:35.332Z,5.80
2019-03-21T02:41:06.604Z,5.80
2019-03-21T02:43:36.761Z,5.80
2019-03-21T02:46:06.726Z,5.80
2019-03-21T02:48:37.100Z,5.90
2019-03-21T02:51:07.485Z,5.90
2019-03-21T02:53:37.461Z,5.90
2019-03-21T02:56:09.020Z,5.90
2019-03-21T02:58:39.075Z,5.90
2019-03-21T03:01:09.052Z,6.00
2019-03-21T03:03:39.066Z,6.00
2019-03-21T03:06:09.035Z,6.00
2019-03-21T03:08:39.001Z,6.00
2019-03-21T03:11:12.936Z,6.00
2019-03-21T03:13:44.147Z,6.00
2019-03-21T03:16:14.127Z,6.00
2019-03-21T03:18:44.132Z,6.00
2019-03-21T03:21:14.103Z,6.00
2019-03-21T03:23:44.054Z,6.00
2019-03-21T03:26:14.044Z,6.00
2019-03-21T03:28:44.145Z,6.00
2019-03-21T03:31:14.120Z,6.00
2019-03-21T03:33:44.070Z,6.00
2019-03-21T03:36:14.608Z,6.00
2019-03-21T03:38:44.585Z,6.10
2019-03-21T03:41:14.624Z,6.10
2019-03-21T03:43:46.201Z,6.10
2019-03-21T03:46:16.168Z,6.10
2019-03-21T03:48:46.435Z,6.00
2019-03-21T03:51:16.693Z,6.00
2019-03-21T03:53:46.676Z,6.00
2019-03-21T03:56:16.791Z,6.00
2019-03-21T03:58:47.941Z,6.00
2019-03-21T04:01:18.033Z,6.00
2019-03-21T04:03:51.129Z,6.00
2019-03-21T04:06:21.430Z,6.00
2019-03-21T04:08:51.529Z,6.00
2019-03-21T04:11:21.748Z,6.00
2019-03-21T04:13:51.744Z,6.10
2019-03-21T04:16:21.747Z,6.00
2019-03-21T04:18:51.715Z,6.10
2019-03-21T04:21:21.701Z,6.10
2019-03-21T04:23:51.691Z,6.00
2019-03-21T04:26:24.977Z,6.10
2019-03-21T04:28:54.975Z,6.10
2019-03-21T04:31:24.998Z,6.10
2019-03-21T04:33:56.736Z,6.10
2019-03-21T04:36:26.756Z,6.10
2019-03-21T04:38:56.712Z,6.10
2019-03-21T04:41:26.716Z,6.10
2019-03-21T04:43:56.723Z,6.10
2019-03-21T04:46:26.712Z,6.10
2019-03-21T04:48:56.715Z,6.10
2019-03-21T04:51:26.706Z,6.10
2019-03-21T04:53:56.664Z,6.10
2019-03-21T04:56:26.708Z,6.20
2019-03-21T04:58:56.718Z,6.10
2019-03-21T05:01:26.724Z,6.10
2019-03-21T05:03:56.720Z,6.20
2019-03-21T05:06:26.714Z,6.20
2019-03-21T05:08:56.675Z,6.20
2019-03-21T05:11:26.668Z,6.20
2019-03-21T05:13:56.731Z,6.30
2019-03-21T05:16:26.711Z,6.30
2019-03-21T05:18:57.607Z,6.30
2019-03-21T05:21:27.592Z,6.40
2019-03-21T05:23:57.591Z,6.40
2019-03-21T05:26:27.582Z,6.40
2019-03-21T05:28:57.596Z,6.40
2019-03-21T05:31:30.320Z,6.40
2019-03-21T05:34:00.331Z,6.50
2019-03-21T05:36:30.285Z,6.50
2019-03-21T05:39:00.283Z,6.50
2019-03-21T05:41:30.276Z,6.50
2019-03-21T05:44:06.698Z,6.50
2019-03-21T05:46:36.736Z,6.60
2019-03-21T05:49:06.712Z,6.60
2019-03-21T05:51:36.699Z,6.60
2019-03-21T05:54:06.739Z,6.60
2019-03-21T05:56:36.716Z,6.60
2019-03-21T05:59:06.739Z,6.70
2019-03-21T06:01:36.791Z,6.70
2019-03-21T06:04:09.113Z,6.70
2019-03-21T06:07:06.033Z,6.80
2019-03-21T06:09:36.252Z,6.80
2019-03-21T06:12:06.658Z,6.80
2019-03-21T06:14:37.964Z,6.80
2019-03-21T06:17:08.452Z,6.80
2019-03-21T06:20:12.216Z,6.80
2019-03-21T06:23:19.935Z,6.80
2019-03-21T06:26:04.296Z,6.80
2019-03-21T06:28:34.271Z,6.80
2019-03-21T06:31:04.301Z,6.80
2019-03-21T06:33:34.387Z,6.80
2019-03-21T06:36:04.398Z,6.80
2019-03-21T06:38:34.407Z,6.80
2019-03-21T06:41:04.393Z,6.80
2019-03-21T06:43:34.435Z,6.70
2019-03-21T06:46:04.436Z,6.80
2019-03-21T06:48:34.403Z,6.70
2019-03-21T06:51:04.465Z,6.80
2019-03-21T06:53:34.494Z,6.80
2019-03-21T06:56:04.790Z,6.80
2019-03-21T06:58:34.735Z,6.80
2019-03-21T07:01:04.726Z,6.80
2019-03-21T07:03:34.679Z,6.90
2019-03-21T07:06:04.702Z,6.90
2019-03-21T07:08:34.665Z,7.00
2019-03-21T07:11:04.647Z,6.90
2019-03-21T07:13:34.655Z,7.00
2019-03-21T07:16:04.672Z,7.00
2019-03-21T07:18:34.738Z,7.00
2019-03-21T07:21:04.687Z,7.00
2019-03-21T07:23:34.664Z,7.10
2019-03-21T07:26:06.643Z,7.10
2019-03-21T07:28:38.480Z,7.10
2019-03-21T07:31:08.020Z,7.20
2019-03-21T07:33:38.000Z,7.10
2019-03-21T07:36:07.962Z,7.10
2019-03-21T07:38:37.963Z,7.10
2019-03-21T07:41:07.953Z,7.10
2019-03-21T07:43:37.992Z,7.10
2019-03-21T07:46:07.959Z,7.20
2019-03-21T07:48:37.944Z,7.20
2019-03-21T07:51:07.944Z,7.20
2019-03-21T07:53:37.949Z,7.20
2019-03-21T07:56:09.446Z,7.30
2019-03-21T07:58:39.439Z,7.30
2019-03-21T08:01:09.404Z,7.30
2019-03-21T08:03:39.412Z,7.30
2019-03-21T08:06:09.403Z,7.40
2019-03-21T08:08:39.520Z,7.40
2019-03-21T08:11:09.548Z,7.40
2019-03-21T08:13:39.535Z,7.40
2019-03-21T08:16:09.594Z,7.40
2019-03-21T08:18:39.607Z,7.50
2019-03-21T08:21:09.745Z,7.50
2019-03-21T08:23:39.901Z,7.50
2019-03-21T08:26:10.036Z,7.50
2019-03-21T08:28:40.004Z,7.50
2019-03-21T08:31:17.047Z,7.50
2019-03-21T08:33:47.068Z,7.50
2019-03-21T08:36:17.242Z,7.50
2019-03-21T08:38:47.327Z,7.60
2019-03-21T08:41:17.336Z,7.60
2019-03-21T08:43:47.348Z,7.60
2019-03-21T08:46:17.344Z,7.70
2019-03-21T08:48:47.320Z,7.70
2019-03-21T08:51:17.322Z,7.70
2019-03-21T08:53:47.371Z,7.70
2019-03-21T08:56:17.386Z,7.70
2019-03-21T08:58:47.387Z,7.80
2019-03-21T09:01:18.213Z,7.80
2019-03-21T09:03:48.240Z,7.90
2019-03-21T09:06:18.227Z,7.90
2019-03-21T09:08:48.316Z,8.00
2019-03-21T09:11:18.303Z,8.00
2019-03-21T09:13:48.299Z,8.00
2019-03-21T09:16:18.334Z,8.10
2019-03-21T09:18:48.315Z,8.20
2019-03-21T09:21:19.867Z,8.30
2019-03-21T09:23:50.083Z,8.30
2019-03-21T09:26:20.055Z,8.40
2019-03-21T09:28:50.053Z,8.50
2019-03-21T09:31:20.079Z,8.60
2019-03-21T09:33:50.064Z,8.60
2019-03-21T09:36:20.040Z,8.70
2019-03-21T09:38:50.055Z,8.70
2019-03-21T09:41:20.048Z,8.70
2019-03-21T09:43:50.031Z,8.80
2019-03-21T09:46:19.995Z,8.90
2019-03-21T09:48:49.975Z,8.90
2019-03-21T09:51:30.359Z,9.00
2019-03-21T09:53:51.555Z,9.00
2019-03-21T09:56:23.968Z,9.00
2019-03-21T09:58:53.198Z,9.00
2019-03-21T10:01:23.213Z,9.10
2019-03-21T10:03:53.183Z,9.10
2019-03-21T10:06:23.256Z,9.10
2019-03-21T10:08:53.280Z,9.10
2019-03-21T10:11:23.243Z,9.20
2019-03-21T10:13:53.224Z,9.20
2019-03-21T10:16:23.235Z,9.20
2019-03-21T10:18:53.264Z,9.30
2019-03-21T10:21:23.220Z,9.40
2019-03-21T10:23:53.210Z,9.50
2019-03-21T10:26:23.228Z,9.50
2019-03-21T10:28:53.258Z,9.70
2019-03-21T10:31:23.247Z,9.70
2019-03-21T10:33:53.255Z,9.90
2019-03-21T10:36:23.369Z,10.00
2019-03-21T10:38:53.416Z,10.10
2019-03-21T10:41:23.414Z,10.20
2019-03-21T10:43:53.450Z,10.30
2019-03-21T10:46:23.440Z,10.40
2019-03-21T10:48:53.403Z,10.50
2019-03-21T10:51:23.399Z,10.60
2019-03-21T10:53:53.383Z,10.60
2019-03-21T10:56:23.493Z,10.70
2019-03-21T10:58:53.471Z,10.70
2019-03-21T11:01:23.636Z,10.80
2019-03-21T11:03:53.619Z,10.80
2019-03-21T11:06:23.605Z,10.90
2019-03-21T11:08:53.592Z,10.90
2019-03-21T11:11:23.606Z,10.90
2019-03-21T11:13:53.583Z,10.90
2019-03-21T11:16:24.048Z,10.90
2019-03-21T11:18:54.016Z,10.90
2019-03-21T11:21:24.028Z,10.90
2019-03-21T11:23:54.025Z,10.90
2019-03-21T11:26:23.991Z,10.90
2019-03-21T11:28:56.155Z,10.90
2019-03-21T11:31:26.142Z,10.90
2019-03-21T11:33:56.147Z,10.90
2019-03-21T11:36:33.782Z,10.90
2019-03-21T11:38:57.848Z,10.80
2019-03-21T11:41:27.849Z,10.80
2019-03-21T11:43:57.791Z,10.70
2019-03-21T11:46:27.774Z,10.60
2019-03-21T11:48:57.744Z,10.50
2019-03-21T11:51:27.753Z,10.40
2019-03-21T11:53:57.747Z,10.50
2019-03-21T11:56:27.728Z,10.50
2019-03-21T11:58:57.714Z,10.50
2019-03-21T12:01:27.695Z,10.40
2019-03-21T12:03:57.718Z,10.40
2019-03-21T12:06:30.252Z,10.40
2019-03-21T12:09:00.230Z,10.40
2019-03-21T12:11:30.227Z,10.40
2019-03-21T12:14:00.364Z,10.50
2019-03-21T12:16:30.338Z,10.50
2019-03-21T12:19:00.321Z,10.60
2019-03-21T12:21:30.299Z,10.70
2019-03-21T12:24:00.282Z,10.90
2019-03-21T12:26:30.240Z,11.10
2019-03-21T12:29:00.373Z,11.20
2019-03-21T12:31:30.391Z,11.30
2019-03-21T12:34:00.432Z,11.30
2019-03-21T12:36:30.522Z,11.20
2019-03-21T12:39:00.531Z,11.10
2019-03-21T12:41:30.761Z,11.00
2019-03-21T12:44:00.685Z,10.90
2019-03-21T12:46:30.734Z,10.80
2019-03-21T12:49:00.696Z,10.80
2019-03-21T12:51:30.715Z,10.70
2019-03-21T12:54:00.716Z,10.60
2019-03-21T12:56:30.683Z,10.50
2019-03-21T12:59:00.663Z,10.50
2019-03-21T13:01:30.649Z,10.40
2019-03-21T13:04:00.606Z,10.30
2019-03-21T13:06:30.674Z,10.30
2019-03-21T13:09:00.583Z,10.20
2019-03-21T13:11:30.605Z,10.30
2019-03-21T13:14:05.594Z,10.30
2019-03-21T13:16:41.026Z,10.30
2019-03-21T13:19:14.104Z,10.30
2019-03-21T13:21:46.152Z,10.20
2019-03-21T13:24:19.437Z,10.20
2019-03-21T13:26:49.173Z,10.20
2019-03-21T13:29:19.312Z,10.10
2019-03-21T13:31:49.746Z,10.00
2019-03-21T13:34:20.829Z,10.00
2019-03-21T13:36:56.238Z,10.00
2019-03-21T13:39:26.303Z,10.00
2019-03-21T13:42:02.726Z,10.00
2019-03-21T13:44:55.875Z,9.90
2019-03-21T13:47:30.414Z,9.90
2019-03-21T13:50:03.100Z,9.80
2019-03-21T13:52:39.537Z,9.90
2019-03-21T13:55:14.845Z,9.90
2019-03-21T13:57:50.103Z,9.90
2019-03-21T14:00:27.488Z,10.00
2019-03-21T14:02:57.730Z,10.20
2019-03-21T14:05:27.695Z,10.30
2019-03-21T14:07:57.664Z,10.30
2019-03-21T14:10:27.742Z,10.40
2019-03-21T14:12:57.704Z,10.40
2019-03-21T14:15:27.803Z,10.40
2019-03-21T14:17:57.813Z,10.50
2019-03-21T14:20:27.787Z,10.50
2019-03-21T14:22:57.755Z,10.50
2019-03-21T14:25:27.758Z,10.60
2019-03-21T14:27:57.765Z,10.60
2019-03-21T14:30:27.747Z,10.60
2019-03-21T14:32:57.741Z,10.60
2019-03-21T14:35:27.720Z,10.70
2019-03-21T14:37:57.701Z,10.70
2019-03-21T14:40:27.700Z,10.70
2019-03-21T14:42:57.880Z,10.70
2019-03-21T14:45:27.913Z,10.70
2019-03-21T14:47:57.901Z,10.70
2019-03-21T14:50:27.998Z,10.70
2019-03-21T14:52:58.001Z,10.70
2019-03-21T14:55:27.997Z,10.70
2019-03-21T14:57:57.983Z,10.70
2019-03-21T15:00:27.951Z,10.70
2019-03-21T15:02:57.949Z,10.70
2019-03-21T15:05:27.936Z,10.70
2019-03-21T15:07:57.903Z,10.60
2019-03-21T15:10:27.934Z,10.60
2019-03-21T15:12:57.901Z,10.60
2019-03-21T15:15:27.899Z,10.60
2019-03-21T15:17:58.867Z,10.60
2019-03-21T15:20:28.857Z,10.60
2019-03-21T15:22:58.839Z,10.50
2019-03-21T15:25:28.837Z,10.50
2019-03-21T15:27:58.791Z,10.50
2019-03-21T15:30:28.808Z,10.40
2019-03-21T15:32:58.857Z,10.40
2019-03-21T15:35:28.856Z,10.30
2019-03-21T15:37:58.852Z,10.20
2019-03-21T15:40:28.835Z,10.20
2019-03-21T15:42:58.837Z,10.10
2019-03-21T15:45:28.843Z,10.00
2019-03-21T15:47:58.871Z,10.00
2019-03-21T15:50:31.410Z,10.00
2019-03-21T15:53:01.548Z,9.90
2019-03-21T15:55:31.696Z,9.90
2019-03-21T15:58:01.657Z,9.80
2019-03-21T16:00:35.910Z,9.80
2019-03-21T16:03:06.987Z,9.80
2019-03-21T16:05:37.535Z,9.80
2019-03-21T16:08:09.071Z,9.80
2019-03-21T16:10:39.308Z,9.80
2019-03-21T16:13:09.296Z,9.70
2019-03-21T16:15:39.298Z,9.70
2019-03-21T16:18:09.305Z,9.70
2019-03-21T16:20:39.326Z,9.70
2019-03-21T16:23:09.353Z,9.70
2019-03-21T16:25:39.334Z,9.70
2019-03-21T16:28:09.501Z,9.70
2019-03-21T16:30:39.477Z,9.60
2019-03-21T16:33:12.438Z,9.60
2019-03-21T16:35:42.440Z,9.60
2019-03-21T16:38:12.434Z,9.60
2019-03-21T16:40:42.427Z,9.50
2019-03-21T16:43:12.508Z,9.50
2019-03-21T16:45:41.696Z,9.50
2019-03-21T16:48:11.783Z,9.50
2019-03-21T16:50:41.771Z,9.50
2019-03-21T16:53:11.763Z,9.40
2019-03-21T16:55:41.834Z,9.40
2019-03-21T16:58:11.949Z,9.40
2019-03-21T17:00:42.313Z,9.40
2019-03-21T17:03:12.751Z,9.30
2019-03-21T17:05:42.953Z,9.30
2019-03-21T17:08:13.437Z,9.30
2019-03-21T17:10:45.456Z,9.30
2019-03-21T17:13:15.527Z,9.30
2019-03-21T17:15:45.772Z,9.20
2019-03-21T17:18:15.756Z,9.20
2019-03-21T17:20:45.742Z,9.20
2019-03-21T17:23:15.720Z,9.20
2019-03-21T17:25:45.683Z,9.10
2019-03-21T17:28:15.700Z,9.10
2019-03-21T17:30:45.768Z,9.10
2019-03-21T17:33:15.727Z,9.10
2019-03-21T17:35:45.703Z,9.00
2019-03-21T17:38:15.668Z,9.00
2019-03-21T17:40:45.660Z,9.00
2019-03-21T17:43:15.647Z,9.00
2019-03-21T17:45:45.599Z,9.00
2019-03-21T17:48:15.675Z,9.00
2019-03-21T17:50:45.657Z,9.00
2019-03-21T17:53:15.752Z,8.90
2019-03-21T17:55:45.728Z,8.90
2019-03-21T17:58:15.875Z,8.90
2019-03-21T18:00:45.844Z,8.90
2019-03-21T18:03:15.939Z,8.90
2019-03-21T18:05:46.058Z,8.90
2019-03-21T18:08:16.044Z,8.90
2019-03-21T18:10:46.008Z,8.80
2019-03-21T18:13:16.011Z,8.90
2019-03-21T18:15:45.975Z,8.90
2019-03-21T18:18:16.030Z,8.90
2019-03-21T18:20:46.091Z,8.90
2019-03-21T18:23:16.067Z,8.90
2019-03-21T18:25:46.032Z,8.90
2019-03-21T18:28:18.887Z,9.00
2019-03-21T18:30:48.902Z,9.00
2019-03-21T18:33:19.406Z,9.00
2019-03-21T18:35:49.484Z,9.00
2019-03-21T18:38:19.456Z,9.00
2019-03-21T18:40:49.430Z,9.00
2019-03-21T18:43:19.418Z,9.00
2019-03-21T18:45:49.387Z,9.00
2019-03-21T18:48:19.364Z,9.00
2019-03-21T18:50:49.561Z,9.00
2019-03-21T18:53:19.516Z,9.00
2019-03-21T18:55:49.507Z,9.00
2019-03-21T18:58:19.488Z,9.00
2019-03-21T19:00:49.468Z,9.00
2019-03-21T19:03:19.955Z,9.10
2019-03-21T19:05:49.984Z,9.00
2019-03-21T19:08:19.976Z,9.00
2019-03-21T19:10:52.609Z,9.00
2019-03-21T19:13:22.591Z,9.00
2019-03-21T19:15:52.661Z,9.00
2019-03-21T19:18:22.740Z,9.00
2019-03-21T19:20:52.941Z,9.00
2019-03-21T19:23:22.976Z,9.00
2019-03-21T19:25:53.244Z,9.00
2019-03-21T19:28:23.256Z,9.10
2019-03-21T19:30:53.219Z,9.10
2019-03-21T19:33:23.236Z,9.00
2019-03-21T19:35:53.227Z,9.00
2019-03-21T19:38:28.896Z,9.10
2019-03-21T19:40:58.963Z,9.10
2019-03-21T19:43:29.087Z,9.00
2019-03-21T19:45:59.057Z,9.10
2019-03-21T19:48:29.373Z,9.10
2019-03-21T19:50:59.394Z,9.10
2019-03-21T19:53:29.368Z,9.00
2019-03-21T19:56:08.023Z,9.10
2019-03-21T19:58:31.052Z,9.10
2019-03-21T20:01:00.996Z,9.10
2019-03-21T20:03:31.006Z,9.10
2019-03-21T20:06:00.997Z,9.10
2019-03-21T20:08:30.955Z,9.10
2019-03-21T20:11:00.976Z,9.10
2019-03-21T20:13:30.939Z,9.10
2019-03-21T20:16:01.216Z,9.10
2019-03-21T20:18:31.260Z,9.10
2019-03-21T20:21:01.285Z,9.10
2019-03-21T20:23:31.270Z,9.10
2019-03-21T20:26:01.282Z,9.10
2019-03-21T20:28:31.278Z,9.10
2019-03-21T20:31:01.283Z,9.10
2019-03-21T20:33:31.256Z,9.10
2019-03-21T20:36:01.227Z,9.10
2019-03-21T20:38:31.207Z,9.00
2019-03-21T20:41:01.244Z,9.10
2019-03-21T20:43:31.209Z,9.10
2019-03-21T20:46:01.267Z,9.10
2019-03-21T20:48:29.917Z,9.10
2019-03-21T20:51:00.154Z,9.00
2019-03-21T20:53:30.168Z,9.00
2019-03-21T20:56:00.135Z,9.00
2019-03-21T20:58:30.130Z,9.00
2019-03-21T21:01:00.126Z,8.90
2019-03-21T21:03:30.100Z,8.90
2019-03-21T21:06:00.083Z,8.90
2019-03-21T21:08:30.096Z,8.90
2019-03-21T21:11:00.065Z,8.90
2019-03-21T21:13:30.038Z,8.80
2019-03-21T21:16:00.128Z,8.80
2019-03-21T21:18:30.099Z,8.80
2019-03-21T21:21:00.078Z,8.80
2019-03-21T21:23:30.197Z,8.80
2019-03-21T21:26:05.543Z,8.80
2019-03-21T21:28:32.852Z,8.70
2019-03-21T21:31:02.942Z,8.70
2019-03-21T21:33:32.900Z,8.70
2019-03-21T21:36:02.924Z,8.70
2019-03-21T21:38:32.917Z,8.70
2019-03-21T21:41:02.877Z,8.60
2019-03-21T21:43:32.862Z,8.60
2019-03-21T21:46:03.033Z,8.60
2019-03-21T21:48:32.995Z,8.60
2019-03-21T21:51:03.035Z,8.50
2019-03-21T21:53:32.987Z,8.50
2019-03-21T21:56:03.005Z,8.50
2019-03-21T21:58:32.979Z,8.50
2019-03-21T22:01:02.952Z,8.50
2019-03-21T22:03:32.931Z,8.50
2019-03-21T22:06:02.945Z,8.50
2019-03-21T22:08:32.908Z,8.50
2019-03-21T22:11:02.877Z,8.60
2019-03-21T22:13:32.990Z,8.60
2019-03-21T22:16:03.184Z,8.70
2019-03-21T22:18:33.139Z,8.70
2019-03-21T22:21:03.100Z,8.70
2019-03-21T22:23:33.067Z,8.70
2019-03-21T22:26:03.088Z,8.80
2019-03-21T22:28:33.038Z,8.80
2019-03-21T22:31:03.045Z,8.80
2019-03-21T22:33:33.011Z,8.80
2019-03-21T22:36:03.007Z,8.80
2019-03-21T22:38:32.979Z,8.80
2019-03-21T22:41:02.963Z,8.80
2019-03-21T22:43:32.964Z,8.90
2019-03-21T22:46:02.091Z,8.90
2019-03-21T22:48:32.060Z,8.90
2019-03-21T22:51:02.041Z,8.80
2019-03-21T22:53:31.980Z,8.90
2019-03-21T22:56:01.951Z,8.80
2019-03-21T22:58:32.152Z,8.90
2019-03-21T23:01:02.111Z,8.80
2019-03-21T23:03:32.067Z,8.80
2019-03-21T23:06:02.084Z,8.80
2019-03-21T23:08:32.040Z,8.80
2019-03-21T23:11:02.031Z,8.90
2019-03-21T23:13:32.304Z,8.80
2019-03-21T23:16:02.365Z,8.80
2019-03-21T23:18:32.334Z,8.80
2019-03-21T23:21:02.347Z,8.80
2019-03-21T23:23:32.359Z,8.80
2019-03-21T23:26:02.414Z,8.80
2019-03-21T23:28:32.415Z,8.80
2019-03-21T23:31:02.386Z,8.70
2019-03-21T23:33:32.368Z,8.70
2019-03-21T23:36:02.343Z,8.70
2019-03-21T23:38:32.330Z,8.70
2019-03-21T23:41:02.299Z,8.70
2019-03-21T23:43:32.248Z,8.60
2019-03-21T23:46:02.225Z,8.60
2019-03-21T23:48:32.220Z,8.60
2019-03-21T23:51:02.199Z,8.60
2019-03-21T23:53:32.197Z,8.60
2019-03-21T23:56:02.208Z,8.60
2019-03-21T23:58:32.178Z,8.60
